"WATCHING THE WEATHER TO PROTECT LIFE AND PROPERTY"


THERE ARE CURRENTLY NO WATCHES NOR WARNINGS


Aviation
Satellite (InfraRed)


TNCA 121600Z 08019KT 050V110 9999 BKN023 31/24 Q1012 NOSIG
TNCB 121555Z 09016KT 060V140 9999 BKN018 BKN021 BKN027 31/25 Q1012
TNCC 121600Z 09009KT 9999 -SHRA FEW018TCU 31/24 Q1012 NOSIG